Time;durP1;ratioP1;P1;durP2;ratioP2;P2;SDS_P1;SDS_P2;PMS_P1;PMS_P2;Temp;Humidity;BMP_temperature;BMP_pressure;BME280_temperature;BME280_humidity;BME280_pressure;Samples;Min_cycle;Max_cycle;Signal;HPM_P1;HPM_P2
2022/06/18 00:04:40;;;;;;;3.97;2.00;;;;;;;19.74;55.79;97515.34;9942861;29;20062;-53
2022/06/18 00:10:04;;;;;;;5.13;2.25;;;;;;;19.74;55.72;97507.25;9942080;29;20066;-53
2022/06/18 00:15:32;;;;;;;5.50;2.22;;;;;;;19.74;55.69;97504.53;9922656;29;20521;-53
2022/06/18 00:20:51;;;;;;;6.07;1.95;;;;;;;19.73;55.78;97501.03;9946467;29;20051;-53
2022/06/18 00:26:10;;;;;;;4.05;2.35;;;;;;;19.73;55.67;97494.81;9943102;29;20062;-50
2022/06/18 00:31:32;;;;;;;4.13;2.20;;;;;;;19.74;55.66;97497.22;9943128;29;20078;-53
2022/06/18 00:36:51;;;;;;;4.35;2.00;;;;;;;19.73;55.68;97498.31;9943713;29;20067;-53
2022/06/18 00:42:21;;;;;;;5.00;2.35;;;;;;;19.74;55.69;97496.44;9953012;29;20059;-53
2022/06/18 00:47:53;;;;;;;3.33;1.80;;;;;;;19.73;55.77;97494.81;9914224;29;20063;-53
2022/06/18 00:53:14;;;;;;;3.83;2.08;;;;;;;19.73;55.61;97494.81;9932503;29;20059;-52
2022/06/18 00:58:46;;;;;;;3.40;1.98;;;;;;;19.73;55.63;97492.91;9937148;29;20059;-53
2022/06/18 01:04:41;;;;;;;4.15;2.00;;;;;;;19.73;55.57;97475.91;9922182;29;20051;-53
2022/06/18 01:10:03;;;;;;;3.75;2.10;;;;;;;19.73;55.67;97473.97;9926693;29;20493;-53
2022/06/18 01:15:23;;;;;;;3.85;2.05;;;;;;;19.73;55.66;97475.91;9922026;29;20063;-53
2022/06/18 01:20:48;;;;;;;4.53;2.22;;;;;;;19.73;55.75;97478.59;9925528;29;20063;-53
2022/06/18 01:26:08;;;;;;;4.03;2.00;;;;;;;19.72;55.65;97483.22;9944340;29;20070;-53
2022/06/18 01:31:30;;;;;;;3.78;1.77;;;;;;;19.72;55.68;97483.22;9921431;29;20376;-52
2022/06/18 01:36:50;;;;;;;3.78;2.00;;;;;;;19.72;55.64;97472.41;9941393;29;20131;-52
2022/06/18 01:42:18;;;;;;;21.30;2.58;;;;;;;19.73;55.69;97473.19;9926701;29;20111;-52
2022/06/18 01:47:41;;;;;;;4.83;2.00;;;;;;;19.73;55.61;97465.09;9904823;29;20127;-53
2022/06/18 01:53:08;;;;;;;2.97;1.90;;;;;;;19.73;55.60;97462.38;9934600;29;20063;-53
2022/06/18 01:58:49;;;;;;;4.88;2.17;;;;;;;19.72;55.74;97444.59;9937842;29;20062;-53
2022/06/18 02:04:17;;;;;;;3.50;1.85;;;;;;;19.72;55.69;97441.88;9913928;29;20055;-50
2022/06/18 02:09:57;;;;;;;3.50;2.10;;;;;;;19.71;55.68;97422.13;9925233;29;20070;-50
2022/06/18 02:15:27;;;;;;;4.43;2.00;;;;;;;19.72;55.62;97429.16;9936738;29;20065;-53
2022/06/18 02:20:51;;;;;;;2.40;1.80;;;;;;;19.72;55.52;97428.38;9930424;29;20058;-53
2022/06/18 02:26:11;;;;;;;2.40;1.52;;;;;;;19.72;55.65;97420.25;9939371;29;20055;-53
2022/06/18 02:31:32;;;;;;;3.05;1.80;;;;;;;19.72;55.57;97415.63;9931785;29;20083;-53
2022/06/18 02:36:51;;;;;;;2.90;1.83;;;;;;;19.71;55.54;97416.72;9924062;29;20119;-53
2022/06/18 02:42:14;;;;;;;2.95;1.77;;;;;;;19.72;55.49;97414.84;9910607;29;20059;-53
2022/06/18 02:47:34;;;;;;;2.38;1.63;;;;;;;19.71;55.62;97414.03;9925194;29;20519;-53
2022/06/18 02:52:58;;;;;;;7.82;2.00;;;;;;;19.70;55.44;97409.72;9930134;29;20054;-52
2022/06/18 02:58:18;;;;;;;2.17;1.60;;;;;;;19.71;55.51;97414.03;9942560;29;20051;-53
2022/06/18 03:03:40;;;;;;;2.92;1.90;;;;;;;19.71;55.51;97419.44;9944187;29;20062;-53
2022/06/18 03:09:00;;;;;;;2.08;1.55;;;;;;;19.71;55.50;97413.19;9953092;29;20062;-53
2022/06/18 03:14:19;;;;;;;2.53;1.42;;;;;;;19.71;55.44;97413.19;9968230;29;20051;-52
2022/06/18 03:19:44;;;;;;;2.55;1.77;;;;;;;19.71;55.32;97415.91;9943436;29;20069;-53
2022/06/18 03:25:04;;;;;;;3.10;1.80;;;;;;;19.70;55.44;97427.84;9927396;29;20057;-53
2022/06/18 03:30:24;;;;;;;2.97;1.60;;;;;;;19.70;55.44;97425.13;9957076;29;20066;-53
2022/06/18 03:35:46;;;;;;;1.90;1.50;;;;;;;19.71;55.42;97427.53;9918590;29;20070;-53
2022/06/18 03:41:08;;;;;;;1.95;1.50;;;;;;;19.71;55.51;97421.31;9936182;29;20066;-52
2022/06/18 03:46:28;;;;;;;2.00;1.58;;;;;;;19.71;55.40;97415.91;9954933;29;20062;-52
2022/06/18 03:51:49;;;;;;;2.38;1.42;;;;;;;19.70;55.39;97411.63;9946848;29;20376;-53
2022/06/18 03:57:17;;;;;;;2.60;1.88;;;;;;;19.71;55.32;97407.78;9922143;29;20062;-52
2022/06/18 04:02:38;;;;;;;2.83;1.70;;;;;;;19.71;55.38;97403.22;9946111;29;20669;-52
2022/06/18 04:07:58;;;;;;;1.58;1.48;;;;;;;19.71;55.40;97399.69;9946974;29;20062;-52
2022/06/18 04:13:28;;;;;;;3.45;1.67;;;;;;;19.71;55.43;97400.50;9929437;29;20075;-52
2022/06/18 04:19:20;;;;;;;2.22;1.30;;;;;;;19.72;55.33;97401.34;9908182;29;20063;-53
2022/06/18 04:24:40;;;;;;;1.75;1.38;;;;;;;19.71;55.32;97402.38;9945853;29;20115;-50
2022/06/18 04:30:00;;;;;;;2.22;1.65;;;;;;;19.71;55.36;97411.31;9929193;29;20077;-52
2022/06/18 04:35:45;;;;;;;2.88;1.60;;;;;;;19.71;55.34;97407.78;9921418;29;20070;-52
2022/06/18 04:41:08;;;;;;;2.53;1.55;;;;;;;19.72;55.28;97395.94;9942661;29;20059;-53
2022/06/18 04:46:33;;;;;;;2.15;1.67;;;;;;;19.72;55.24;97398.63;9951690;29;20054;-53
2022/06/18 04:51:53;;;;;;;1.45;1.30;;;;;;;19.74;55.29;97399.13;9935244;29;20058;-51
2022/06/18 04:57:25;;;;;;;2.00;1.30;;;;;;;19.74;55.37;97402.59;9944591;29;20058;-52
2022/06/18 05:02:45;;;;;;;2.60;1.55;;;;;;;19.75;55.21;97395.28;9925870;29;20070;-51
2022/06/18 05:08:23;;;;;;;1.55;1.33;;;;;;;19.75;55.23;97398.00;9951703;29;20050;-53
2022/06/18 05:14:01;;;;;;;2.22;1.45;;;;;;;19.76;55.11;97402.31;9962377;29;20066;-53
2022/06/18 05:19:33;;;;;;;2.13;1.38;;;;;;;19.76;55.26;97399.59;9938864;29;20075;-53
2022/06/18 05:24:55;;;;;;;1.58;1.35;;;;;;;19.75;55.22;97401.47;9960472;29;20081;-53
2022/06/18 05:30:17;;;;;;;2.05;1.48;;;;;;;19.75;55.13;97396.06;9956440;29;20427;-53
2022/06/18 05:35:41;;;;;;;1.58;1.25;;;;;;;19.76;55.10;97402.31;9927362;29;20467;-53
2022/06/18 05:41:02;;;;;;;1.65;1.40;;;;;;;19.75;55.18;97400.69;9932898;29;20054;-52
2022/06/18 05:46:22;;;;;;;2.15;1.52;;;;;;;19.75;55.22;97393.38;9961154;29;20066;-53
2022/06/18 05:51:41;;;;;;;1.50;1.27;;;;;;;19.77;55.10;97389.56;9931438;29;20113;-53
2022/06/18 05:57:02;;;;;;;2.00;1.40;;;;;;;19.76;55.15;97396.91;9975300;29;20054;-53
2022/06/18 06:02:39;;;;;;;1.70;1.45;;;;;;;19.76;55.06;97396.91;9951279;29;20055;-53
2022/06/18 06:07:59;;;;;;;2.10;1.38;;;;;;;19.76;55.13;97386.06;9925041;29;20066;-53
2022/06/18 06:13:19;;;;;;;1.67;1.40;;;;;;;19.76;55.12;97396.91;9922360;29;20059;-53
2022/06/18 06:18:39;;;;;;;2.10;1.00;;;;;;;19.77;55.10;97398.47;9927325;29;20065;-53
2022/06/18 06:23:58;;;;;;;2.05;1.45;;;;;;;19.77;55.15;97394.97;9967539;29;20070;-52
2022/06/18 06:29:17;;;;;;;1.65;1.23;;;;;;;19.77;55.17;97390.38;9945990;29;20081;-53
2022/06/18 06:34:37;;;;;;;1.55;1.33;;;;;;;19.78;55.13;97391.16;9955260;29;20066;-52
2022/06/18 06:39:56;;;;;;;1.80;1.40;;;;;;;19.77;54.91;97389.56;9963412;29;20078;-52
2022/06/18 06:45:18;;;;;;;2.42;1.60;;;;;;;19.78;54.97;97391.97;9957565;29;20495;-52
2022/06/18 06:50:38;;;;;;;1.77;1.20;;;;;;;19.77;54.67;97390.38;9947108;29;20050;-52
2022/06/18 07:01:36;;;;;;;2.33;1.40;;;;;;;19.77;54.72;97371.44;9941703;29;20483;-52
2022/06/18 07:06:57;;;;;;;3.15;1.45;;;;;;;19.78;54.64;97369.53;9928968;29;20066;-53
2022/06/18 07:12:17;;;;;;;1.77;1.40;;;;;;;19.79;54.75;97368.44;9934363;29;20124;-52
2022/06/18 07:17:37;;;;;;;1.40;1.30;;;;;;;19.79;54.70;97361.09;9947265;29;20146;-53
2022/06/18 07:22:58;;;;;;;1.50;1.40;;;;;;;19.79;54.66;97365.72;9934146;29;20066;-53
2022/06/18 07:28:18;;;;;;;1.85;1.35;;;;;;;19.79;54.71;97355.69;9955645;29;20051;-53
2022/06/18 07:33:37;;;;;;;1.80;1.42;;;;;;;19.80;54.71;97360.00;9957056;29;20140;-53
2022/06/18 07:38:56;;;;;;;1.50;1.15;;;;;;;19.80;54.83;97351.09;9959761;29;20058;-52
2022/06/18 07:44:16;;;;;;;1.30;1.20;;;;;;;19.79;54.88;97350.28;9942569;29;20051;-53
2022/06/18 07:49:35;;;;;;;4.32;1.27;;;;;;;19.79;54.89;97347.59;9948735;29;20046;-53
2022/06/18 07:54:54;;;;;;;1.33;1.23;;;;;;;19.79;54.86;97336.78;9944475;29;20395;-53
2022/06/18 08:00:16;;;;;;;1.70;1.30;;;;;;;19.81;54.89;97331.84;9938569;29;20062;-51
2022/06/18 08:05:37;;;;;;;1.60;1.27;;;;;;;19.80;54.92;97326.75;9941150;29;20113;-54
2022/06/18 08:10:56;;;;;;;1.70;1.45;;;;;;;19.79;54.85;97314.34;9943520;29;20260;-52
2022/06/18 08:16:16;;;;;;;2.05;1.30;;;;;;;19.81;54.79;97314.84;9958449;29;20494;-53
2022/06/18 08:21:43;;;;;;;1.42;1.20;;;;;;;19.79;54.79;97315.16;9944655;29;20059;-54
2022/06/18 08:27:03;;;;;;;3.97;1.40;;;;;;;19.81;54.70;97312.13;9936988;29;20062;-53
2022/06/18 08:32:22;;;;;;;2.05;1.55;;;;;;;19.83;54.68;97315.31;9963798;29;20055;-53
2022/06/18 08:37:41;;;;;;;4.10;1.50;;;;;;;19.83;54.43;97310.72;9940492;29;20058;-53
2022/06/18 08:43:31;;;;;;;1.95;1.40;;;;;;;19.84;54.40;97315.03;9942524;29;20575;-53
2022/06/18 08:49:09;;;;;;;1.80;1.50;;;;;;;19.86;53.82;97295.78;9929324;29;20402;-51
2022/06/18 08:54:48;;;;;;;1.77;1.55;;;;;;;19.88;53.57;97296.25;9952935;29;20055;-54
2022/06/18 09:00:32;;;;;;;2.28;1.27;;;;;;;19.89;52.87;97293.22;9932200;29;20948;-53
2022/06/18 09:06:11;;;;;;;2.38;1.23;;;;;;;19.90;52.60;97281.31;9918521;29;20562;-53
2022/06/18 09:11:51;;;;;;;2.80;1.25;;;;;;;19.91;52.43;97282.88;9941848;29;20458;-52
2022/06/18 09:17:13;;;;;;;;;;;;;;;19.90;51.86;97278.63;9929288;29;20092;-54
2022/06/18 09:22:35;;;;;;;7.25;5.35;;;;;;;19.90;52.43;97278.63;9964022;29;19993;-54
2022/06/18 09:28:11;;;;;;;21.20;15.43;;;;;;;19.89;52.31;97277.00;9956864;29;20071;-52
2022/06/18 09:33:37;;;;;;;17.77;13.30;;;;;;;19.92;52.47;97257.47;9943166;29;20062;-52
2022/06/18 09:38:57;;;;;;;13.63;9.05;;;;;;;19.90;52.87;97254.28;9945148;29;20069;-53
2022/06/18 09:44:42;;;;;;;10.27;7.43;;;;;;;19.90;53.22;97246.16;9969331;29;20502;-53
2022/06/18 09:50:02;;;;;;;8.68;6.88;;;;;;;19.90;53.38;97242.66;9936641;29;20062;-51
2022/06/18 09:55:36;;;;;;;9.13;6.53;;;;;;;19.90;53.19;97240.75;9946739;29;20119;-52
2022/06/18 10:00:57;;;;;;;9.30;6.70;;;;;;;19.88;53.25;97232.16;9948873;29;20059;-52
2022/06/18 10:11:58;;;;;;;6.22;5.38;;;;;;;19.89;53.55;97220.22;9934873;29;20548;-53
2022/06/18 10:17:21;;;;;;;7.18;4.85;;;;;;;19.89;53.53;97211.31;9947468;29;20066;-53
2022/06/18 10:22:44;;;;;;;5.45;4.63;;;;;;;19.89;53.50;97193.19;9952831;29;20054;-53
2022/06/18 10:28:13;;;;;;;4.80;4.30;;;;;;;19.90;53.43;97194.00;9941781;29;20462;-51
2022/06/18 10:33:42;;;;;;;4.00;3.50;;;;;;;19.89;53.36;97197.81;9961078;29;20579;-54
2022/06/18 10:39:08;;;;;;;3.40;3.05;;;;;;;19.89;53.44;97195.88;9955519;29;20058;-53
2022/06/18 10:44:53;;;;;;;3.47;2.95;;;;;;;19.89;53.35;97185.06;9964642;29;20061;-53
2022/06/18 10:50:16;;;;;;;3.20;2.92;;;;;;;19.89;53.36;97162.66;9940718;29;20076;-53
2022/06/18 10:55:36;;;;;;;2.78;2.30;;;;;;;19.89;53.34;97174.25;9941523;29;20217;-53
2022/06/18 11:01:00;;;;;;;3.33;2.38;;;;;;;19.89;53.38;97159.94;9936478;29;20128;-53
2022/06/18 11:06:20;;;;;;;2.53;2.22;;;;;;;19.89;53.30;97149.13;9929775;29;21007;-53
2022/06/18 11:11:40;;;;;;;2.08;1.98;;;;;;;19.89;53.22;97152.63;9924220;29;20051;-53
2022/06/18 11:16:59;;;;;;;2.65;2.13;;;;;;;19.89;53.26;97152.63;9934768;29;20067;-54
2022/06/18 11:22:24;;;;;;;2.25;2.05;;;;;;;19.89;53.19;97133.69;9944693;29;20058;-51
2022/06/18 11:27:45;;;;;;;1.70;1.60;;;;;;;19.89;53.29;97132.91;9913189;29;20078;-53
2022/06/18 11:33:25;;;;;;;1.60;1.50;;;;;;;19.91;53.24;97136.88;9934178;29;20192;-52
2022/06/18 11:38:54;;;;;;;1.90;1.60;;;;;;;19.90;53.13;97135.31;9940116;29;20112;-53
2022/06/18 11:44:19;;;;;;;1.65;1.48;;;;;;;19.90;53.13;97126.41;9934153;29;20055;-54
2022/06/18 11:49:47;;;;;;;1.50;1.40;;;;;;;19.91;53.16;97125.28;9942638;29;20133;-51
2022/06/18 11:55:19;;;;;;;1.60;1.50;;;;;;;19.91;53.05;97117.16;9936480;29;20108;-53
2022/06/18 12:00:57;;;;;;;1.23;1.10;;;;;;;19.91;53.00;97125.28;9943067;29;20066;-51
2022/06/18 12:06:25;;;;;;;1.33;1.23;;;;;;;19.91;52.98;97111.75;9941897;29;20063;-53
2022/06/18 12:11:52;;;;;;;1.40;1.30;;;;;;;19.91;53.02;97109.84;9942298;29;20077;-53
2022/06/18 12:17:53;;;;;;;1.30;1.20;;;;;;;19.90;53.04;97089.34;9941335;29;20067;-52
2022/06/18 12:23:18;;;;;;;1.67;1.40;;;;;;;19.91;53.06;97088.22;9868452;29;20063;-53
2022/06/18 12:28:58;;;;;;;1.20;1.10;;;;;;;19.93;52.93;97087.91;9939441;29;20545;-52
2022/06/18 12:34:27;;;;;;;0.90;0.90;;;;;;;19.92;52.34;97079.00;9929471;29;20422;-53
2022/06/18 12:39:51;;;;;;;;;;;;;;;19.88;50.42;97071.84;9934681;29;20122;-53
2022/06/18 12:45:26;;;;;;;1.30;1.20;;;;;;;19.80;51.43;97067.22;9922493;29;19925;-51
2022/06/18 12:51:04;;;;;;;1.10;1.00;;;;;;;19.80;51.20;97057.22;9935068;29;20059;-53
2022/06/18 12:56:31;;;;;;;1.80;1.10;;;;;;;19.77;51.35;97052.44;9928875;29;20059;-52
2022/06/18 13:02:15;;;;;;;1.23;1.13;;;;;;;19.81;51.32;97058.78;9919962;29;20066;-53
2022/06/18 13:08:10;;;;;;;1.13;1.02;;;;;;;19.77;51.61;97047.03;9919143;29;20132;-52
2022/06/18 13:13:51;;;;;;;1.08;1.08;;;;;;;19.72;49.34;97045.31;9943656;29;20063;-53
2022/06/18 13:19:22;;;;;;;2.42;1.10;;;;;;;19.65;50.58;97039.53;9942331;29;20067;-50
2022/06/18 13:30:39;;;;;;;2.13;1.25;;;;;;;19.61;49.18;97025.09;9959767;29;20203;-53
2022/06/18 13:36:05;;;;;;;;;;;;;;;19.65;50.87;97017.13;9959959;29;20113;-53
2022/06/18 13:41:49;;;;;;;1.75;1.35;;;;;;;19.67;49.09;97006.78;9926194;29;19982;-52
2022/06/18 13:47:32;;;;;;;3.92;1.60;;;;;;;19.67;50.88;97001.38;9945557;29;20074;-53
2022/06/18 13:52:51;;;;;;;2.97;1.33;;;;;;;19.72;50.04;97001.25;9963560;29;20062;-53
2022/06/18 13:58:25;;;;;;;2.00;1.42;;;;;;;19.62;49.43;96990.72;9961784;29;20058;-53
2022/06/18 14:03:51;;;;;;;2.35;1.80;;;;;;;19.67;50.71;96998.69;9954160;29;20483;-52
2022/06/18 14:09:19;;;;;;;3.25;1.63;;;;;;;19.70;49.46;96979.13;9940264;29;20062;-53
2022/06/18 14:14:41;;;;;;;5.53;1.63;;;;;;;19.69;50.69;96980.25;9943245;29;20203;-53
2022/06/18 14:20:02;;;;;;;4.07;1.85;;;;;;;19.66;49.28;96978.97;9948096;29;20074;-51
2022/06/18 14:25:22;;;;;;;5.38;1.98;;;;;;;19.68;50.77;96968.66;9955522;29;20088;-51
2022/06/18 14:30:45;;;;;;;5.60;2.17;;;;;;;19.74;50.83;96958.50;9967802;29;20070;-53
2022/06/18 14:36:18;;;;;;;6.47;2.50;;;;;;;19.67;50.07;96956.22;9975051;29;20063;-53
2022/06/18 14:41:38;;;;;;;9.07;2.60;;;;;;;19.70;50.84;96954.81;9966584;29;20067;-53
2022/06/18 14:47:07;;;;;;;7.75;2.90;;;;;;;19.66;50.80;96953.84;9945605;29;20063;-53
2022/06/18 14:52:45;;;;;;;6.47;2.70;;;;;;;19.68;51.21;96938.09;9950363;29;20055;-53
2022/06/18 14:58:16;;;;;;;6.20;2.38;;;;;;;19.70;50.20;96925.09;9949675;29;20139;-53
2022/06/18 15:04:00;;;;;;;8.02;2.72;;;;;;;19.70;51.32;96917.75;9940109;29;20058;-53
2022/06/18 15:09:35;;;;;;;6.00;2.65;;;;;;;19.69;50.23;96921.56;9959221;29;20568;-52
2022/06/18 15:14:57;;;;;;;9.48;2.80;;;;;;;19.68;51.35;96917.28;9948991;29;20050;-53
2022/06/18 15:25:39;;;;;;;9.15;2.70;;;;;;;19.67;50.60;96907.59;9949333;29;20560;-53
2022/06/18 15:31:22;;;;;;;6.60;2.40;;;;;;;19.70;51.66;96895.34;9926072;29;20055;-52
2022/06/18 15:36:42;;;;;;;6.78;2.60;;;;;;;19.71;50.52;96891.53;9945576;29;20070;-53
2022/06/18 15:42:03;;;;;;;8.55;2.83;;;;;;;19.69;51.81;96899.16;9948740;29;20081;-53
2022/06/18 15:47:28;;;;;;;6.45;2.58;;;;;;;19.72;52.10;96893.16;9956587;29;20093;-53
2022/06/18 15:52:49;;;;;;;6.28;2.38;;;;;;;19.71;51.09;96886.13;9937439;29;20061;-53
2022/06/18 15:58:09;;;;;;;5.30;2.10;;;;;;;19.69;52.48;96883.72;9959504;29;20518;-51
2022/06/18 16:03:29;;;;;;;5.18;2.17;;;;;;;19.69;51.17;96874.84;9936683;29;20051;-53
2022/06/18 16:09:01;;;;;;;5.22;2.25;;;;;;;19.69;52.73;96872.13;9954946;29;20487;-52
2022/06/18 16:14:24;;;;;;;5.18;2.22;;;;;;;19.70;52.04;96871.03;9945889;29;20070;-52
2022/06/18 16:19:47;;;;;;;3.60;2.00;;;;;;;19.70;52.77;96871.03;9945325;29;20071;-54
2022/06/18 16:25:24;;;;;;;6.57;2.30;;;;;;;19.68;51.36;96867.81;9934230;29;20274;-53
2022/06/18 16:30:50;;;;;;;2.72;1.83;;;;;;;19.68;52.79;96871.34;9945956;29;20078;-51
2022/06/18 16:36:18;;;;;;;6.05;2.00;;;;;;;19.69;51.51;96864.03;9943442;29;20099;-51
2022/06/18 16:41:42;;;;;;;3.70;2.20;;;;;;;19.69;52.64;96864.03;9940055;29;20071;-53
2022/06/18 16:47:08;;;;;;;4.30;1.83;;;;;;;19.69;51.75;96861.31;9940805;29;20125;-51
2022/06/18 16:52:29;;;;;;;4.47;1.95;;;;;;;19.71;53.19;96859.09;9954321;29;20069;-53
2022/06/18 16:57:49;;;;;;;3.17;1.80;;;;;;;19.73;52.53;96865.00;9955126;29;20061;-53
2022/06/18 17:03:09;;;;;;;3.00;1.70;;;;;;;19.70;53.21;96857.50;9938821;29;20059;-51
2022/06/18 17:08:34;;;;;;;5.85;1.90;;;;;;;19.73;53.50;96851.47;9954054;29;20047;-53
2022/06/18 17:13:55;;;;;;;3.92;1.90;;;;;;;19.70;53.78;96854.81;9932644;29;20059;-53
2022/06/18 17:19:15;;;;;;;5.55;2.05;;;;;;;19.73;54.03;96854.97;9948209;29;20054;-54
2022/06/18 17:35:59;;;;;;;3.45;1.52;;;;;;;19.71;53.80;96845.56;9953031;29;20055;-53
2022/06/18 17:41:19;;;;;;;4.28;1.85;;;;;;;19.72;54.23;96839.88;9954719;29;20059;-51
2022/06/18 17:46:38;;;;;;;4.13;2.22;;;;;;;19.71;53.24;96838.28;9946185;29;20055;-53
2022/06/18 17:51:58;;;;;;;2.65;1.70;;;;;;;19.71;54.20;96837.47;9947674;29;20062;-54
2022/06/18 17:57:17;;;;;;;2.42;1.70;;;;;;;19.75;54.17;96833.03;9936280;29;20063;-52
2022/06/18 18:02:37;;;;;;;2.35;1.60;;;;;;;19.75;54.05;96836.50;9955956;29;20116;-53
2022/06/18 18:07:58;;;;;;;3.03;1.98;;;;;;;19.77;54.08;96841.59;9951890;29;20065;-54
2022/06/18 18:13:18;;;;;;;3.35;1.80;;;;;;;19.78;54.04;96837.78;9964160;29;20057;-54
2022/06/18 18:18:38;;;;;;;2.35;1.80;;;;;;;19.78;54.03;96832.38;9942798;29;20062;-53
2022/06/18 18:23:58;;;;;;;4.68;1.80;;;;;;;19.81;54.01;96831.72;9952224;29;20062;-53
2022/06/18 18:29:18;;;;;;;3.20;1.65;;;;;;;19.82;53.98;96849.53;9931161;29;20067;-52
2022/06/18 18:34:38;;;;;;;2.97;1.73;;;;;;;19.83;53.97;96839.50;9938107;29;20118;-52
2022/06/18 18:39:58;;;;;;;6.35;1.80;;;;;;;19.83;54.02;96834.88;9945892;29;20085;-53
2022/06/18 18:45:19;;;;;;;3.08;1.70;;;;;;;19.83;54.09;96834.09;9933369;29;20058;-53
2022/06/18 18:50:39;;;;;;;2.50;1.50;;;;;;;19.84;54.15;96839.19;9937616;29;20555;-54
2022/06/18 18:55:58;;;;;;;3.67;1.67;;;;;;;19.84;54.04;96835.72;9917488;29;20050;-52
2022/06/18 19:01:18;;;;;;;4.82;1.70;;;;;;;19.83;54.01;96840.28;9930073;29;20063;-54
2022/06/18 19:06:38;;;;;;;2.85;1.60;;;;;;;19.85;54.09;96848.09;9935935;29;20450;-54
2022/06/18 19:17:38;;;;;;;3.33;1.35;;;;;;;19.84;54.08;96852.72;9917080;29;20494;-53
2022/06/18 19:22:57;;;;;;;3.97;1.63;;;;;;;19.85;54.05;96859.69;9929970;29;20550;-54
2022/06/18 19:28:26;;;;;;;2.22;1.52;;;;;;;19.85;54.01;96865.09;9929459;29;20516;-53
2022/06/18 19:33:46;;;;;;;2.60;1.60;;;;;;;19.84;54.01;96868.94;9932506;29;20059;-53
2022/06/18 19:39:06;;;;;;;3.08;1.70;;;;;;;19.84;54.11;96866.22;9948320;29;20563;-53
2022/06/18 19:44:25;;;;;;;1.92;1.42;;;;;;;19.85;53.95;96873.22;9933085;29;20507;-54
2022/06/18 19:49:45;;;;;;;2.47;1.67;;;;;;;19.84;53.78;96870.84;9936232;29;20062;-52
2022/06/18 19:55:06;;;;;;;2.85;1.58;;;;;;;19.84;53.94;96879.75;9934634;29;20051;-54
2022/06/18 20:00:26;;;;;;;2.63;1.40;;;;;;;19.85;53.86;96880.53;9919570;29;20139;-56
2022/06/18 20:05:48;;;;;;;2.50;1.42;;;;;;;19.85;53.93;96869.72;9932685;29;20409;-54
2022/06/18 20:11:08;;;;;;;2.88;1.70;;;;;;;19.85;53.84;96878.63;9956301;29;20530;-54
2022/06/18 20:16:27;;;;;;;2.92;1.63;;;;;;;19.86;53.81;96868.63;9943434;29;20062;-53
2022/06/18 20:21:47;;;;;;;2.78;1.67;;;;;;;19.84;53.77;96863.53;9937198;29;20079;-54
2022/06/18 20:27:07;;;;;;;2.17;1.58;;;;;;;19.85;53.76;96864.31;9939480;29;20416;-52
2022/06/18 20:32:26;;;;;;;2.90;1.50;;;;;;;19.85;53.82;96870.50;9936473;29;20085;-52
2022/06/18 20:37:45;;;;;;;3.33;1.60;;;;;;;19.85;53.69;96865.09;9927399;29;20430;-51
2022/06/18 20:43:05;;;;;;;2.58;1.50;;;;;;;19.85;53.71;96853.50;9948099;29;20062;-54
2022/06/18 20:48:24;;;;;;;2.13;1.63;;;;;;;19.86;53.58;96858.59;9945299;29;20876;-51
2022/06/18 20:53:44;;;;;;;1.75;1.40;;;;;;;19.85;53.62;96853.50;9912572;29;20063;-53
2022/06/18 20:59:04;;;;;;;2.08;1.30;;;;;;;19.86;53.56;96855.88;9928290;29;20059;-53
2022/06/18 21:04:24;;;;;;;3.45;1.70;;;;;;;19.85;53.37;96854.28;9940165;29;20062;-53
2022/06/18 21:09:45;;;;;;;3.67;1.50;;;;;;;19.86;53.57;96846.97;9942784;29;20118;-52
2022/06/18 21:15:07;;;;;;;2.50;1.30;;;;;;;19.85;53.47;96839.97;9929589;29;20066;-53
2022/06/18 21:20:27;;;;;;;1.60;1.48;;;;;;;19.85;53.55;96838.06;9917718;29;20068;-54
2022/06/18 21:25:46;;;;;;;2.47;1.80;;;;;;;19.85;53.46;96845.38;9929281;29;20070;-54
2022/06/18 21:36:59;;;;;;;2.08;1.70;;;;;;;19.87;53.37;96840.44;9938671;29;20461;-50
2022/06/18 21:37:00;;;;;;;2.95;1.50;;;;;;;19.86;53.46;96844.28;9954043;29;20061;-51
2022/06/18 21:42:19;;;;;;;2.33;1.40;;;;;;;19.85;53.50;96829.16;9953583;29;20055;-53
2022/06/18 21:47:39;;;;;;;3.58;1.45;;;;;;;19.86;53.55;96834.25;9937313;29;20067;-53
2022/06/18 21:52:58;;;;;;;3.30;1.70;;;;;;;19.85;53.51;96824.53;9940913;29;20470;-53
2022/06/18 21:58:19;;;;;;;2.08;1.58;;;;;;;19.85;53.50;96840.75;9937817;29;20313;-53
2022/06/18 22:03:39;;;;;;;2.47;1.50;;;;;;;19.85;53.52;96837.28;9922706;29;20116;-53
2022/06/18 22:08:58;;;;;;;2.90;1.80;;;;;;;19.86;53.44;96850.47;9951065;29;20534;-50
2022/06/18 22:19:57;;;;;;;2.55;1.90;;;;;;;19.86;53.49;96845.06;9948787;29;20503;-54
2022/06/18 22:25:16;;;;;;;1.90;1.67;;;;;;;19.85;53.65;96846.16;9953155;29;20062;-51
2022/06/18 22:30:37;;;;;;;2.80;1.70;;;;;;;19.85;53.74;96848.88;9949883;29;20063;-54
2022/06/18 22:35:56;;;;;;;2.08;1.77;;;;;;;19.86;53.82;96845.06;9948866;29;20054;-54
2022/06/18 22:41:34;;;;;;;2.65;1.95;;;;;;;19.85;53.77;96840.75;9948359;29;20062;-52
2022/06/18 22:46:56;;;;;;;2.92;1.90;;;;;;;19.85;53.86;96843.47;9964918;29;20489;-53
2022/06/18 22:52:20;;;;;;;3.15;1.90;;;;;;;19.85;53.95;96837.28;9942646;29;20059;-54
2022/06/18 22:57:40;;;;;;;4.50;2.05;;;;;;;19.84;54.02;96839.19;9945014;29;20063;-53
2022/06/18 23:02:59;;;;;;;3.28;2.08;;;;;;;19.85;54.06;96840.75;9948943;29;20054;-53
2022/06/18 23:08:20;;;;;;;3.72;2.10;;;;;;;19.85;54.14;96846.16;9951398;29;20050;-53
2022/06/18 23:13:39;;;;;;;3.35;2.28;;;;;;;19.85;54.18;96842.69;9939432;29;20055;-53
2022/06/18 23:19:00;;;;;;;4.45;1.95;;;;;;;19.84;54.24;96841.91;9952196;29;20519;-51
2022/06/18 23:24:20;;;;;;;6.05;2.13;;;;;;;19.85;54.43;96837.28;9931590;29;20063;-52
2022/06/18 23:29:40;;;;;;;8.20;2.22;;;;;;;19.85;54.41;96832.66;9944694;29;20066;-52
2022/06/18 23:35:02;;;;;;;5.35;2.28;;;;;;;19.84;54.45;96833.00;9946384;29;20062;-54
2022/06/18 23:40:29;;;;;;;2.88;2.25;;;;;;;19.84;54.44;96824.88;9944678;29;20066;-52
2022/06/18 23:45:49;;;;;;;5.30;2.28;;;;;;;19.84;54.42;96822.97;9948927;29;20104;-54
2022/06/18 23:51:09;;;;;;;3.78;2.25;;;;;;;19.84;54.34;96814.06;9933970;29;20082;-54
2022/06/18 23:56:29;;;;;;;5.10;2.20;;;;;;;19.84;54.39;96808.66;9948482;29;20069;-53
